Time;durP1;ratioP1;P1;durP2;ratioP2;P2;SDS_P1;SDS_P2;PMS_P1;PMS_P2;Temp;Humidity;BMP_temperature;BMP_pressure;BME280_temperature;BME280_humidity;BME280_pressure;Samples;Min_cycle;Max_cycle;Signal;HPM_P1;HPM_P2
2023/10/28 00:00:17;;;;;;;2.45;1.75;;;;;;;19.04;58.15;93854.19;5016103;28;20278;-72
2023/10/28 00:02:46;;;;;;;3.53;1.85;;;;;;;19.03;58.51;93853.38;5015969;28;20206;-72
2023/10/28 00:05:14;;;;;;;2.90;1.70;;;;;;;19.03;58.78;93856.19;5015692;28;20195;-72
2023/10/28 00:07:44;;;;;;;2.85;1.80;;;;;;;19.03;58.48;93866.56;5016257;28;20183;-72
2023/10/28 00:10:11;;;;;;;3.15;1.65;;;;;;;19.02;58.32;93867.78;5015430;28;20214;-72
2023/10/28 00:12:40;;;;;;;2.50;1.75;;;;;;;19.03;58.37;93875.75;5014746;28;20199;-71
2023/10/28 00:15:09;;;;;;;2.22;1.70;;;;;;;19.02;58.47;93874.16;5015235;28;20202;-72
2023/10/28 00:17:37;;;;;;;3.55;1.83;;;;;;;19.02;58.45;93865.78;5015370;28;20203;-72
2023/10/28 00:20:08;;;;;;;3.88;2.08;;;;;;;19.01;58.28;93867.00;5015035;28;20195;-72
2023/10/28 00:22:36;;;;;;;2.63;1.50;;;;;;;19.02;58.45;93862.19;5015853;28;20222;-72
2023/10/28 00:25:05;;;;;;;2.92;1.80;;;;;;;19.02;58.23;93859.41;5016352;28;20234;-71
2023/10/28 00:27:33;;;;;;;2.40;1.65;;;;;;;19.01;58.38;93869.78;5015316;28;20203;-71
2023/10/28 00:30:01;;;;;;;2.60;1.85;;;;;;;19.02;58.74;93867.78;5015696;28;20187;-71
2023/10/28 00:32:31;;;;;;;3.45;1.73;;;;;;;19.02;58.40;93876.16;5015990;28;20278;-71
2023/10/28 00:34:59;;;;;;;5.63;1.88;;;;;;;19.00;58.69;93887.78;5015508;28;20191;-71
2023/10/28 00:37:28;;;;;;;4.07;1.88;;;;;;;18.98;58.49;93882.63;5015320;28;20211;-71
2023/10/28 00:39:57;;;;;;;2.92;1.63;;;;;;;18.97;58.40;93880.28;5015399;28;20202;-71
2023/10/28 00:42:25;;;;;;;2.50;1.50;;;;;;;18.97;58.46;93891.44;5015596;28;20203;-72
2023/10/28 00:44:54;;;;;;;2.75;1.92;;;;;;;18.97;58.62;93891.44;5015870;28;20230;-72
2023/10/28 00:47:23;;;;;;;1.88;1.60;;;;;;;18.98;58.31;93893.00;5015656;28;20198;-72
2023/10/28 00:49:50;;;;;;;2.38;1.50;;;;;;;18.96;58.49;93896.25;5015472;28;20257;-72
2023/10/28 00:52:19;;;;;;;5.47;1.83;;;;;;;18.97;59.09;93895.03;5015527;28;20217;-72
2023/10/28 00:54:51;;;;;;;4.05;1.75;;;;;;;18.95;59.05;93902.25;5014544;28;20195;-72
2023/10/28 00:57:20;;;;;;;4.57;2.25;;;;;;;18.93;59.71;93897.13;5014363;28;20250;-72
2023/10/28 00:59:47;;;;;;;4.78;2.10;;;;;;;18.92;59.42;93903.16;5015720;28;20187;-72
2023/10/28 01:02:30;;;;;;;3.92;1.90;;;;;;;18.90;59.76;93894.41;5113858;27;20564;-73
2023/10/28 01:04:56;;;;;;;5.72;1.92;;;;;;;18.86;59.81;93899.28;5113564;28;20179;-73
2023/10/28 01:07:25;;;;;;;3.88;1.88;;;;;;;18.85;59.80;93892.16;5113119;28;20191;-72
2023/10/28 01:09:51;;;;;;;4.05;1.70;;;;;;;18.82;60.12;93906.97;5112168;28;20207;-72
2023/10/28 01:12:21;;;;;;;3.20;1.60;;;;;;;18.79;60.26;93900.25;5113148;28;20600;-72
2023/10/28 01:14:47;;;;;;;4.30;1.80;;;;;;;18.78;60.30;93893.09;5112353;28;20203;-72
2023/10/28 01:17:15;;;;;;;3.80;2.00;;;;;;;18.74;60.30;93890.38;5112762;28;20191;-72
2023/10/28 01:19:46;;;;;;;3.15;1.80;;;;;;;18.74;60.75;93906.34;5112909;28;20183;-72
2023/10/28 01:22:15;;;;;;;3.50;1.90;;;;;;;18.71;60.51;93898.84;5112816;28;20272;-72
2023/10/28 01:24:45;;;;;;;4.85;1.95;;;;;;;18.71;60.56;93891.25;5112851;28;20179;-72
2023/10/28 01:27:13;;;;;;;4.18;2.22;;;;;;;18.69;60.85;93896.44;5111588;28;20194;-72
2023/10/28 01:29:40;;;;;;;3.67;2.22;;;;;;;18.66;61.08;93902.88;5111601;28;20210;-72
2023/10/28 01:32:07;;;;;;;2.92;2.00;;;;;;;18.65;60.92;93895.72;5112578;28;20248;-72
2023/10/28 01:34:46;;;;;;;4.82;2.00;;;;;;;18.62;61.05;93899.38;5112101;28;20192;-72
2023/10/28 01:37:16;;;;;;;2.58;1.77;;;;;;;18.62;61.10;93887.44;5112010;28;20611;-72
2023/10/28 01:39:44;;;;;;;2.58;1.60;;;;;;;18.61;60.98;93888.66;5112935;28;20184;-72
2023/10/28 01:42:13;;;;;;;3.40;1.65;;;;;;;18.62;60.92;93887.44;5111772;28;20231;-73
2023/10/28 01:44:40;;;;;;;3.00;1.88;;;;;;;18.63;60.54;93903.00;5112445;28;20188;-73
2023/10/28 01:47:09;;;;;;;4.47;1.83;;;;;;;18.64;60.61;93883.00;5111260;28;20200;-73
2023/10/28 01:49:35;;;;;;;3.72;1.95;;;;;;;18.66;60.65;93888.13;5112131;28;20188;-73
2023/10/28 01:52:04;;;;;;;4.18;1.65;;;;;;;18.65;60.29;93887.34;5112330;28;20195;-73
2023/10/28 01:54:35;;;;;;;4.15;1.70;;;;;;;18.68;60.10;93880.91;5112179;28;20203;-73
2023/10/28 01:57:05;;;;;;;2.35;1.42;;;;;;;18.68;59.87;93878.13;5112364;28;20219;-73
2023/10/28 01:59:32;;;;;;;2.15;1.52;;;;;;;18.70;59.96;93891.63;5111571;28;20200;-73
2023/10/28 02:02:02;;;;;;;4.50;1.70;;;;;;;18.70;59.52;93902.81;5111909;28;20239;-73
2023/10/28 02:04:30;;;;;;;3.28;1.45;;;;;;;18.71;59.50;93902.41;5111881;28;20211;-71
2023/10/28 02:06:59;;;;;;;4.55;2.33;;;;;;;18.72;59.35;93911.56;5112368;28;20195;-73
2023/10/28 02:09:27;;;;;;;4.05;2.15;;;;;;;18.71;59.14;93908.00;5110985;28;20195;-73
2023/10/28 02:11:56;;;;;;;4.55;1.80;;;;;;;18.71;59.35;93912.81;5109251;28;20188;-73
2023/10/28 02:14:24;;;;;;;3.78;1.80;;;;;;;18.72;59.16;93919.97;5097805;28;20211;-73
2023/10/28 02:16:54;;;;;;;3.67;1.52;;;;;;;18.71;59.05;93910.00;5098090;28;20188;-73
2023/10/28 02:19:21;;;;;;;2.28;1.40;;;;;;;18.71;58.65;93918.38;5097701;28;20200;-73
2023/10/28 02:21:48;;;;;;;2.13;1.58;;;;;;;18.72;58.44;93920.75;5098122;28;20230;-73
2023/10/28 02:24:17;;;;;;;3.03;1.63;;;;;;;18.74;58.15;93917.53;5098231;28;20208;-73
2023/10/28 02:26:45;;;;;;;3.17;1.60;;;;;;;18.74;58.10;93920.31;5097885;28;20560;-73
2023/10/28 02:29:16;;;;;;;4.38;1.52;;;;;;;18.77;57.98;93933.41;5098022;28;20213;-73
2023/10/28 02:31:44;;;;;;;2.75;1.70;;;;;;;18.76;58.20;93926.25;5097189;28;20203;-72
2023/10/28 02:34:12;;;;;;;1.67;1.45;;;;;;;18.75;58.06;93927.47;5097606;28;20201;-72
2023/10/28 02:36:40;;;;;;;2.78;1.85;;;;;;;18.75;58.17;93928.25;5097361;28;20628;-72
2023/10/28 02:39:11;;;;;;;4.30;2.30;;;;;;;18.74;58.30;93917.53;5097613;28;20184;-72
2023/10/28 02:41:40;;;;;;;2.42;1.80;;;;;;;18.73;58.33;93924.31;5098321;28;20215;-73
2023/10/28 02:44:07;;;;;;;2.03;1.58;;;;;;;18.70;58.08;93914.78;5098263;28;20181;-73
2023/10/28 02:46:39;;;;;;;3.17;1.60;;;;;;;18.71;57.97;93912.81;5097562;28;20207;-73
2023/10/28 02:49:06;;;;;;;2.05;1.30;;;;;;;18.71;57.86;93918.38;5097345;28;20203;-74
2023/10/28 02:51:34;;;;;;;3.72;1.92;;;;;;;18.72;57.42;93920.75;5098660;28;20195;-73
2023/10/28 02:54:01;;;;;;;3.35;1.50;;;;;;;18.72;57.31;93923.53;5098266;28;20200;-73
2023/10/28 02:56:30;;;;;;;3.30;1.70;;;;;;;18.76;57.44;93938.19;5097214;28;20246;-73
2023/10/28 02:58:56;;;;;;;1.90;1.60;;;;;;;18.80;57.37;93928.97;5098499;28;20173;-73
2023/10/28 03:01:25;;;;;;;2.03;1.45;;;;;;;18.79;57.53;93932.97;5099062;28;20240;-74
2023/10/28 03:03:53;;;;;;;2.60;1.70;;;;;;;18.76;58.02;93926.25;5099232;28;20180;-73
2023/10/28 03:06:21;;;;;;;3.47;1.70;;;;;;;18.75;58.60;93935.84;5097857;28;20189;-73
2023/10/28 03:08:48;;;;;;;3.50;1.40;;;;;;;18.71;58.28;93930.34;5098159;28;20192;-73
2023/10/28 03:11:16;;;;;;;4.15;2.13;;;;;;;18.68;58.39;93928.38;5098147;28;20522;-74
2023/10/28 03:13:45;;;;;;;3.20;1.40;;;;;;;18.67;58.55;93946.38;5097343;28;20210;-72
2023/10/28 03:16:14;;;;;;;3.13;1.40;;;;;;;18.66;58.47;93933.59;5097520;28;20195;-72
2023/10/28 03:18:40;;;;;;;2.00;1.45;;;;;;;18.66;58.48;93932.81;5097492;28;20177;-73
2023/10/28 03:21:10;;;;;;;2.60;1.45;;;;;;;18.65;58.50;93934.81;5096591;28;20670;-73
2023/10/28 03:23:37;;;;;;;1.85;1.42;;;;;;;18.64;58.60;93944.44;5096004;28;20204;-73
2023/10/28 03:26:06;;;;;;;2.63;1.60;;;;;;;18.65;58.78;93948.00;5097147;28;20189;-73
2023/10/28 03:28:33;;;;;;;2.33;1.40;;;;;;;18.64;58.79;93950.00;5097680;28;20196;-73
2023/10/28 03:31:09;;;;;;;3.47;1.60;;;;;;;18.62;58.61;93951.66;5097147;28;20600;-73
2023/10/28 03:33:37;;;;;;;3.15;1.90;;;;;;;18.60;59.56;93959.69;5096590;28;20210;-72
2023/10/28 03:36:05;;;;;;;4.18;2.88;;;;;;;18.39;60.13;93958.91;5096995;28;20199;-72
2023/10/28 03:38:34;;;;;;;4.60;2.95;;;;;;;18.14;61.20;93965.00;5096852;28;20199;-73
2023/10/28 03:41:06;;;;;;;5.97;3.30;;;;;;;17.88;62.69;93957.53;5097328;28;20196;-73
2023/10/28 03:43:33;;;;;;;5.25;3.00;;;;;;;17.74;62.69;93958.53;5096310;28;20232;-72
2023/10/28 03:46:01;;;;;;;3.30;2.80;;;;;;;17.62;63.23;93965.53;5096753;28;20210;-72
2023/10/28 03:48:28;;;;;;;4.78;3.10;;;;;;;17.50;63.48;93966.13;5096162;28;20195;-73
2023/10/28 03:51:00;;;;;;;3.97;3.00;;;;;;;17.39;64.24;93960.72;5095756;28;20196;-73
2023/10/28 03:53:27;;;;;;;4.95;3.13;;;;;;;17.33;64.54;93973.59;5096785;28;20199;-72
2023/10/28 03:55:57;;;;;;;5.00;3.20;;;;;;;17.27;64.98;93964.91;5096524;28;20191;-72
2023/10/28 03:58:24;;;;;;;5.82;3.10;;;;;;;17.25;65.11;93969.34;5096859;28;20185;-73
2023/10/28 04:00:53;;;;;;;4.63;2.70;;;;;;;17.23;65.31;93971.75;5095099;28;20240;-73
2023/10/28 04:03:20;;;;;;;5.32;2.95;;;;;;;17.15;65.37;93970.28;5096408;28;20212;-73
2023/10/28 04:05:48;;;;;;;5.40;3.10;;;;;;;17.07;65.88;93977.97;5096262;28;20202;-73
2023/10/28 04:08:14;;;;;;;6.00;2.90;;;;;;;17.02;66.22;93986.78;5096272;28;20177;-73
2023/10/28 04:10:46;;;;;;;5.07;3.22;;;;;;;17.00;66.23;93986.44;5095845;28;20199;-73
2023/10/28 04:13:15;;;;;;;5.15;3.40;;;;;;;16.99;66.26;93987.63;5096064;28;20277;-73
2023/10/28 04:15:43;;;;;;;3.80;3.13;;;;;;;16.92;66.38;93988.53;5095036;28;20624;-73
2023/10/28 04:18:10;;;;;;;4.80;3.17;;;;;;;16.90;66.64;93995.72;5095134;28;20189;-73
2023/10/28 04:20:39;;;;;;;4.40;3.25;;;;;;;16.82;67.13;93998.63;5095018;28;20203;-73
2023/10/28 04:23:06;;;;;;;4.32;2.80;;;;;;;16.79;67.05;93999.44;5096615;28;20632;-73
2023/10/28 04:25:34;;;;;;;4.38;3.38;;;;;;;16.77;67.26;94012.97;5095348;28;20196;-73
2023/10/28 04:28:01;;;;;;;5.07;3.38;;;;;;;16.76;67.50;94011.41;5095969;28;20188;-73
2023/10/28 04:30:31;;;;;;;3.97;3.22;;;;;;;16.75;67.64;94014.63;5095242;28;20189;-73
2023/10/28 04:32:58;;;;;;;4.03;3.13;;;;;;;16.69;67.78;94010.69;5095892;28;20195;-73
2023/10/28 04:35:28;;;;;;;4.90;2.90;;;;;;;16.64;68.10;94011.94;5095190;28;20227;-73
2023/10/28 04:37:55;;;;;;;4.97;3.20;;;;;;;16.61;68.00;94012.78;5095854;28;20177;-73
2023/10/28 04:40:24;;;;;;;5.20;3.17;;;;;;;16.60;68.24;94020.34;5095643;28;20188;-73
2023/10/28 04:42:51;;;;;;;4.53;3.20;;;;;;;16.59;68.06;94029.91;5095313;28;20223;-72
2023/10/28 04:45:21;;;;;;;4.30;2.85;;;;;;;16.59;68.22;94021.56;5095248;28;20315;-72
2023/10/28 04:47:50;;;;;;;3.95;2.88;;;;;;;16.64;68.35;94020.31;5094318;28;20547;-72
2023/10/28 04:50:18;;;;;;;4.88;3.05;;;;;;;16.63;68.55;94017.91;5095502;28;20283;-72
2023/10/28 04:52:45;;;;;;;4.38;2.97;;;;;;;16.58;68.37;94022.75;5094644;28;20204;-73
2023/10/28 04:55:15;;;;;;;3.92;3.03;;;;;;;16.57;68.57;94028.75;5095550;28;20180;-73
2023/10/28 04:57:42;;;;;;;7.32;3.45;;;;;;;16.56;69.00;94021.59;5095580;28;20185;-73
2023/10/28 05:00:09;;;;;;;5.25;3.50;;;;;;;16.50;69.21;94029.63;5095335;28;20187;-72
2023/10/28 05:02:36;;;;;;;8.32;4.20;;;;;;;16.43;69.06;94040.81;5095270;28;20212;-72
2023/10/28 05:05:08;;;;;;;5.13;3.22;;;;;;;16.41;69.57;94026.53;5095357;28;20200;-73
2023/10/28 05:07:36;;;;;;;5.70;3.20;;;;;;;16.40;69.39;94040.88;5095396;28;20185;-73
2023/10/28 05:10:05;;;;;;;5.47;3.00;;;;;;;16.40;69.41;94041.66;5094164;28;20199;-73
2023/10/28 05:12:32;;;;;;;6.28;3.33;;;;;;;16.41;69.73;94050.78;5095315;28;20184;-73
2023/10/28 05:15:00;;;;;;;4.85;3.10;;;;;;;16.37;69.48;94039.69;5094720;28;20250;-72
2023/10/28 05:17:27;;;;;;;7.35;4.50;;;;;;;16.28;70.00;94050.56;5095269;28;20246;-72
2023/10/28 05:19:55;;;;;;;8.20;3.63;;;;;;;16.25;70.12;94060.50;5095192;28;20196;-72
2023/10/28 05:22:23;;;;;;;6.50;3.50;;;;;;;16.28;70.38;94070.81;5094859;28;20231;-72
2023/10/28 05:24:52;;;;;;;5.43;3.17;;;;;;;16.31;70.06;94071.97;5094212;28;20208;-72
2023/10/28 05:27:19;;;;;;;5.75;3.42;;;;;;;16.36;70.22;94066.75;5094900;28;20230;-72
2023/10/28 05:29:48;;;;;;;4.22;3.83;;;;;;;16.36;69.77;94075.09;5094269;28;20192;-72
2023/10/28 05:32:15;;;;;;;5.43;3.63;;;;;;;16.33;70.17;94072.34;5096406;28;20188;-74
2023/10/28 05:34:42;;;;;;;6.65;3.50;;;;;;;16.34;69.93;94085.06;5094626;28;20201;-74
2023/10/28 05:37:09;;;;;;;6.70;4.30;;;;;;;16.33;70.14;94094.59;5096426;28;20250;-74
2023/10/28 05:39:40;;;;;;;5.32;4.22;;;;;;;16.35;69.71;94087.44;5096852;28;20185;-74
2023/10/28 05:42:07;;;;;;;5.53;3.53;;;;;;;16.35;70.26;94090.22;5095621;28;20277;-68
2023/10/28 05:44:38;;;;;;;4.30;3.30;;;;;;;16.36;70.11;94111.25;5094010;28;20204;-71
2023/10/28 05:47:07;;;;;;;7.75;4.53;;;;;;;16.40;70.02;94107.66;5095162;28;20195;-68
2023/10/28 05:49:35;;;;;;;8.25;4.53;;;;;;;16.45;69.93;94109.97;5097600;28;20632;-68
2023/10/28 05:52:02;;;;;;;5.35;3.60;;;;;;;16.42;70.33;94100.47;5098518;28;20180;-68
2023/10/28 05:54:31;;;;;;;5.68;3.67;;;;;;;16.42;70.58;94106.06;5098695;28;20283;-68
2023/10/28 05:56:59;;;;;;;5.53;3.63;;;;;;;16.44;70.83;94120.31;5098789;28;20181;-68
2023/10/28 05:59:27;;;;;;;6.05;4.20;;;;;;;16.47;70.55;94115.94;5098288;28;20512;-68
2023/10/28 06:01:54;;;;;;;6.07;3.78;;;;;;;16.45;70.42;94124.72;5097289;28;20243;-68
2023/10/28 06:04:22;;;;;;;6.95;3.83;;;;;;;16.49;70.70;94127.44;5098777;28;20196;-72
2023/10/28 06:06:49;;;;;;;6.40;4.10;;;;;;;16.52;70.10;94130.19;5098717;28;20196;-70
2023/10/28 06:09:17;;;;;;;6.32;4.63;;;;;;;16.55;69.97;94139.69;5098558;28;20265;-72
2023/10/28 06:11:44;;;;;;;9.93;4.15;;;;;;;16.56;70.06;94130.94;5097164;28;20204;-72
2023/10/28 06:14:13;;;;;;;7.13;4.40;;;;;;;16.57;69.69;94131.72;5097980;28;20188;-72
2023/10/28 06:16:40;;;;;;;8.50;5.53;;;;;;;16.55;69.66;94134.13;5097624;28;20196;-72
2023/10/28 06:19:10;;;;;;;7.40;4.78;;;;;;;16.57;70.30;94140.88;5098550;28;20648;-72
2023/10/28 06:21:39;;;;;;;8.82;5.78;;;;;;;16.65;69.82;94144.38;5097939;28;20613;-71
2023/10/28 06:24:08;;;;;;;8.90;6.25;;;;;;;16.68;69.79;94153.88;5097370;28;20227;-71
2023/10/28 06:26:37;;;;;;;8.98;6.47;;;;;;;16.74;69.50;94158.63;5098126;28;20196;-72
2023/10/28 06:29:05;;;;;;;8.90;5.65;;;;;;;16.80;69.81;94165.31;5097813;28;20270;-71
2023/10/28 06:31:35;;;;;;;6.13;4.97;;;;;;;16.86;69.43;94162.88;5097884;28;20208;-71
2023/10/28 06:34:05;;;;;;;7.78;4.82;;;;;;;16.91;69.29;94172.75;5096719;28;20235;-71
2023/10/28 06:36:32;;;;;;;5.85;4.30;;;;;;;16.96;69.13;94177.88;5097435;28;20246;-72
2023/10/28 06:39:00;;;;;;;7.50;4.65;;;;;;;17.03;68.70;94180.56;5096953;28;20196;-72
2023/10/28 06:41:27;;;;;;;7.13;4.78;;;;;;;17.12;68.43;94182.88;5097429;28;20532;-72
2023/10/28 06:43:56;;;;;;;10.13;5.07;;;;;;;17.19;68.41;94182.78;5098092;28;20208;-73
2023/10/28 06:46:25;;;;;;;5.07;4.57;;;;;;;17.25;67.80;94176.34;5098081;28;20191;-73
2023/10/28 06:48:54;;;;;;;8.20;5.18;;;;;;;17.31;67.38;94183.00;5097127;28;20200;-73
2023/10/28 06:51:21;;;;;;;8.00;4.68;;;;;;;17.41;67.36;94200.81;5097627;28;20314;-73
2023/10/28 06:53:50;;;;;;;10.02;5.22;;;;;;;17.48;67.11;94199.94;5097603;28;20284;-73
2023/10/28 06:56:16;;;;;;;6.45;4.90;;;;;;;17.52;67.01;94201.44;5097218;28;20192;-72
2023/10/28 06:58:44;;;;;;;6.78;4.60;;;;;;;17.51;66.29;94207.47;5096718;28;20211;-72
2023/10/28 07:01:11;;;;;;;7.05;5.25;;;;;;;17.48;66.59;94211.06;5096468;28;20251;-74
2023/10/28 07:03:38;;;;;;;10.10;4.95;;;;;;;17.48;66.27;94202.72;5096382;28;20220;-68
2023/10/28 07:06:09;;;;;;;6.47;4.60;;;;;;;17.49;66.54;94207.84;5096389;28;20200;-67
2023/10/28 07:08:36;;;;;;;6.68;4.40;;;;;;;17.52;66.08;94215.38;5097651;28;20185;-67
2023/10/28 07:11:04;;;;;;;7.63;4.50;;;;;;;17.53;66.04;94214.16;5096247;28;20204;-67
2023/10/28 07:13:30;;;;;;;6.60;3.90;;;;;;;17.53;66.00;94222.53;5096769;28;20208;-71
2023/10/28 07:16:01;;;;;;;6.97;4.80;;;;;;;17.52;65.88;94220.19;5096500;28;20196;-70
2023/10/28 07:18:29;;;;;;;6.63;4.70;;;;;;;17.55;65.83;94230.50;5096097;28;20224;-69
2023/10/28 07:20:56;;;;;;;4.80;4.40;;;;;;;17.61;65.99;94228.03;5097326;28;20194;-67
2023/10/28 07:23:26;;;;;;;7.28;4.65;;;;;;;17.67;66.35;94241.09;5097148;28;20200;-66
2023/10/28 07:25:53;;;;;;;8.15;4.85;;;;;;;17.70;65.79;94240.25;5096275;28;20188;-66
2023/10/28 07:28:20;;;;;;;6.15;4.47;;;;;;;17.76;65.71;94235.81;5096895;28;20199;-66
2023/10/28 07:30:48;;;;;;;5.53;4.93;;;;;;;17.85;65.56;94229.72;5096834;28;20523;-66
2023/10/28 07:33:15;;;;;;;9.25;5.65;;;;;;;17.93;65.78;94225.59;5096836;28;20180;-66
2023/10/28 07:35:44;;;;;;;11.10;6.88;;;;;;;17.99;65.37;94231.50;5096791;28;20184;-66
2023/10/28 07:38:12;;;;;;;9.27;5.63;;;;;;;18.06;65.29;94227.84;5096375;28;20196;-66
2023/10/28 07:40:41;;;;;;;9.68;5.30;;;;;;;18.12;64.88;94228.91;5096890;28;20271;-66
2023/10/28 07:43:08;;;;;;;9.10;5.90;;;;;;;18.17;64.83;94236.84;5096861;28;20204;-66
2023/10/28 07:45:35;;;;;;;7.22;5.07;;;;;;;18.27;64.52;94222.72;5096481;28;20631;-67
2023/10/28 07:48:02;;;;;;;7.22;5.30;;;;;;;18.42;64.33;94228.06;5096249;28;20196;-67
2023/10/28 07:50:29;;;;;;;8.63;5.50;;;;;;;18.52;63.80;94233.47;5096446;28;20184;-67
2023/10/28 07:52:56;;;;;;;12.35;5.78;;;;;;;18.65;63.73;94228.06;5096425;28;20192;-66
2023/10/28 07:55:23;;;;;;;6.72;5.20;;;;;;;18.83;63.15;94232.59;5096096;28;20514;-66
2023/10/28 07:57:56;;;;;;;8.60;5.22;;;;;;;19.02;62.81;94233.84;5096043;28;20180;-66
2023/10/28 08:00:23;;;;;;;6.35;4.78;;;;;;;19.18;61.98;94231.94;5095832;28;20199;-67
2023/10/28 08:02:55;;;;;;;6.80;4.78;;;;;;;19.34;61.50;94244.41;5095545;28;20270;-66
2023/10/28 08:05:22;;;;;;;7.38;5.00;;;;;;;19.51;61.30;94251.66;5095238;28;20253;-66
2023/10/28 08:07:51;;;;;;;7.18;4.88;;;;;;;19.62;60.42;94243.88;5096439;28;20589;-66
2023/10/28 08:10:22;;;;;;;6.50;4.50;;;;;;;19.73;60.51;94242.84;5095334;28;20557;-66
2023/10/28 08:12:52;;;;;;;6.38;4.30;;;;;;;19.90;59.93;94241.69;5095954;28;20280;-66
2023/10/28 08:15:20;;;;;;;5.88;4.53;;;;;;;20.01;58.93;94241.44;5095030;28;20215;-66
2023/10/28 08:17:50;;;;;;;6.53;4.68;;;;;;;20.08;58.50;94242.09;5095843;28;20196;-66
2023/10/28 08:20:18;;;;;;;8.85;5.72;;;;;;;20.17;58.09;94250.66;5096171;28;20184;-66
2023/10/28 08:22:46;;;;;;;6.05;4.03;;;;;;;20.27;58.07;94245.25;5095810;28;20212;-66
2023/10/28 08:25:15;;;;;;;6.45;3.83;;;;;;;20.41;58.12;94250.53;5094957;28;20219;-66
2023/10/28 08:27:44;;;;;;;7.65;4.60;;;;;;;20.54;57.32;94254.22;5095865;28;20192;-66
2023/10/28 08:30:15;;;;;;;7.40;4.60;;;;;;;20.67;57.15;94248.72;5095761;28;20176;-66
2023/10/28 08:32:42;;;;;;;7.90;3.90;;;;;;;20.80;56.33;94243.19;5095457;28;20180;-66
2023/10/28 08:35:10;;;;;;;4.85;3.75;;;;;;;20.95;56.07;94250.00;5095702;28;20176;-66
2023/10/28 08:37:36;;;;;;;6.88;3.88;;;;;;;21.14;55.68;94256.72;5095391;28;20184;-67
2023/10/28 08:40:06;;;;;;;5.18;3.47;;;;;;;21.30;54.40;94253.09;5095977;28;20176;-66
2023/10/28 08:42:35;;;;;;;4.88;3.75;;;;;;;21.46;54.29;94260.69;5095533;28;20181;-66
2023/10/28 08:45:03;;;;;;;6.82;3.60;;;;;;;21.62;54.24;94261.44;5095214;28;20242;-66
2023/10/28 08:47:32;;;;;;;6.43;3.55;;;;;;;21.79;53.46;94261.41;5095258;28;20615;-66
2023/10/28 08:50:00;;;;;;;7.30;5.28;;;;;;;21.96;52.77;94257.25;5095526;28;20180;-66
2023/10/28 08:52:28;;;;;;;7.55;5.07;;;;;;;22.10;52.01;94248.41;5095518;28;20192;-66
2023/10/28 08:54:59;;;;;;;5.55;3.80;;;;;;;22.24;51.09;94240.81;5095486;28;20230;-66
2023/10/28 08:57:27;;;;;;;6.25;3.38;;;;;;;22.21;50.17;94244.53;5095431;28;20279;-66
2023/10/28 08:59:54;;;;;;;6.00;2.90;;;;;;;22.20;49.73;94251.38;5094608;28;20192;-66
2023/10/28 09:02:21;;;;;;;6.72;3.42;;;;;;;22.25;49.55;94248.00;5094739;28;20246;-66
2023/10/28 09:04:49;;;;;;;8.05;3.45;;;;;;;22.30;49.56;94258.69;5095241;28;20223;-66
2023/10/28 09:07:16;;;;;;;6.70;3.22;;;;;;;22.42;49.96;94248.69;5094458;28;20212;-66
2023/10/28 09:09:42;;;;;;;6.00;3.10;;;;;;;22.52;49.92;94244.75;5095355;28;20196;-66
2023/10/28 09:12:10;;;;;;;4.85;2.90;;;;;;;22.64;48.17;94249.56;5094922;28;20605;-66
2023/10/28 09:14:37;;;;;;;7.15;2.58;;;;;;;22.77;47.64;94261.59;5095417;28;20196;-67
2023/10/28 09:17:04;;;;;;;5.15;2.25;;;;;;;22.89;45.11;94245.94;5095211;28;20234;-66
2023/10/28 09:19:31;;;;;;;3.67;2.20;;;;;;;23.02;44.57;94251.56;5094897;28;20207;-66
2023/10/28 09:22:02;;;;;;;3.33;2.00;;;;;;;23.08;43.88;94243.34;5094415;28;20188;-66
2023/10/28 09:24:29;;;;;;;5.43;2.05;;;;;;;23.12;42.78;94246.81;5099302;28;20211;-67
2023/10/28 09:26:56;;;;;;;3.72;2.10;;;;;;;23.14;42.46;94239.50;5099014;28;20203;-66
2023/10/28 09:29:28;;;;;;;3.90;2.47;;;;;;;23.25;43.21;94248.38;5098665;28;20214;-66
2023/10/28 09:32:05;;;;;;;3.78;2.08;;;;;;;23.39;42.07;94238.63;5098166;28;20196;-66
2023/10/28 09:34:34;;;;;;;5.75;1.77;;;;;;;23.53;41.80;94240.16;5099526;28;20191;-67
2023/10/28 09:37:03;;;;;;;5.30;1.65;;;;;;;23.69;42.42;94237.19;5099755;28;20197;-66
2023/10/28 09:39:30;;;;;;;3.70;1.85;;;;;;;23.83;41.86;94258.38;5099637;28;20184;-67
2023/10/28 09:41:56;;;;;;;2.58;1.63;;;;;;;23.88;39.49;94242.94;5099826;28;20207;-67
2023/10/28 09:44:24;;;;;;;3.58;1.95;;;;;;;23.90;39.95;94248.91;5099150;28;20224;-66
2023/10/28 09:46:51;;;;;;;3.67;1.70;;;;;;;23.95;40.30;94243.44;5099025;28;20201;-67
2023/10/28 09:49:19;;;;;;;3.13;1.77;;;;;;;24.06;38.67;94236.63;5099086;28;20185;-66
2023/10/28 09:51:49;;;;;;;5.50;2.00;;;;;;;24.08;38.38;94237.75;5099341;28;20187;-66
2023/10/28 09:54:19;;;;;;;1.50;1.23;;;;;;;24.03;38.62;94235.50;5099378;28;20181;-66
2023/10/28 09:56:47;;;;;;;2.20;1.50;;;;;;;24.00;38.48;94237.22;5098696;28;20192;-67
2023/10/28 09:59:18;;;;;;;3.88;2.00;;;;;;;24.06;39.02;94243.03;5099260;27;20265;-67
2023/10/28 10:01:52;;;;;;;2.47;1.58;;;;;;;24.18;38.13;94236.56;5098107;28;20239;-67
2023/10/28 10:04:32;;;;;;;3.05;1.92;;;;;;;24.22;37.09;94233.56;5099239;28;20509;-67
2023/10/28 10:06:58;;;;;;;7.50;1.88;;;;;;;24.10;37.44;94242.91;5098718;28;20192;-67
2023/10/28 10:09:27;;;;;;;2.83;1.55;;;;;;;24.01;38.08;94213.44;5099462;28;20188;-67
2023/10/28 10:11:57;;;;;;;3.00;1.63;;;;;;;24.07;37.58;94212.84;5082443;28;20193;-67
2023/10/28 10:14:24;;;;;;;3.65;1.70;;;;;;;24.10;37.65;94220.38;5099661;28;20188;-67
2023/10/28 10:16:56;;;;;;;3.97;1.60;;;;;;;24.22;37.47;94208.22;5098313;28;20200;-67
2023/10/28 10:19:29;;;;;;;2.20;1.77;;;;;;;24.32;36.64;94211.88;5098954;28;20185;-68
2023/10/28 10:21:57;;;;;;;2.58;1.60;;;;;;;24.32;36.27;94201.38;5099273;28;20188;-67
2023/10/28 10:24:27;;;;;;;2.55;1.80;;;;;;;24.36;36.47;94212.50;5098712;28;20209;-67
2023/10/28 10:26:55;;;;;;;4.40;1.90;;;;;;;24.45;36.41;94206.94;5098644;28;20258;-67
2023/10/28 10:29:23;;;;;;;5.28;1.77;;;;;;;24.41;35.77;94215.53;5098816;28;20184;-66
2023/10/28 10:31:55;;;;;;;2.58;1.38;;;;;;;24.06;36.03;94217.69;5098588;28;20196;-67
2023/10/28 10:34:33;;;;;;;2.28;1.67;;;;;;;23.95;36.67;94206.06;5097812;28;20192;-67
2023/10/28 10:37:00;;;;;;;3.95;1.52;;;;;;;23.99;36.56;94201.06;5097863;28;20686;-67
2023/10/28 10:39:29;;;;;;;3.92;1.70;;;;;;;24.05;37.11;94216.13;5098764;28;20188;-67
2023/10/28 10:41:59;;;;;;;2.17;1.50;;;;;;;24.03;37.44;94201.72;5098902;28;20228;-67
2023/10/28 10:44:32;;;;;;;4.03;1.58;;;;;;;23.99;37.68;94204.66;5097923;28;20261;-67
2023/10/28 10:46:59;;;;;;;4.32;1.80;;;;;;;24.09;37.98;94219.59;5099060;28;20196;-67
2023/10/28 10:49:26;;;;;;;3.90;1.63;;;;;;;24.09;38.50;94199.88;5098602;28;20282;-67
2023/10/28 10:51:54;;;;;;;6.72;2.03;;;;;;;24.13;36.91;94202.56;5098586;28;20207;-67
2023/10/28 10:54:20;;;;;;;5.10;1.60;;;;;;;24.02;37.97;94192.47;5097787;28;20527;-66
2023/10/28 10:56:50;;;;;;;2.25;1.58;;;;;;;23.95;38.72;94204.00;5097332;28;20208;-68
2023/10/28 10:59:16;;;;;;;4.22;1.75;;;;;;;23.86;38.97;94198.34;5097242;28;20219;-67
2023/10/28 11:01:46;;;;;;;3.70;2.10;;;;;;;23.86;38.79;94195.53;5096934;28;20239;-67
2023/10/28 11:04:13;;;;;;;3.00;1.83;;;;;;;23.90;38.76;94195.41;5098055;28;20208;-68
2023/10/28 11:06:40;;;;;;;1.70;1.50;;;;;;;23.96;38.83;94194.31;5098155;28;20185;-67
2023/10/28 11:09:08;;;;;;;5.85;2.17;;;;;;;23.91;38.70;94197.75;5098280;28;20199;-67
2023/10/28 11:11:38;;;;;;;5.00;1.50;;;;;;;23.90;38.91;94212.28;5098039;28;20249;-67
2023/10/28 11:14:06;;;;;;;4.05;1.80;;;;;;;23.88;38.51;94200.69;5098115;28;20253;-67
2023/10/28 11:16:35;;;;;;;2.03;1.60;;;;;;;23.80;38.33;94194.53;5097477;28;20196;-67
2023/10/28 11:19:03;;;;;;;3.08;1.58;;;;;;;23.75;38.71;94201.56;5097158;28;20204;-67
2023/10/28 11:21:32;;;;;;;5.35;1.60;;;;;;;23.71;38.71;94192.47;5097883;28;20188;-67
2023/10/28 11:23:59;;;;;;;3.47;1.45;;;;;;;23.65;38.54;94194.28;5096798;28;20201;-67
2023/10/28 11:26:27;;;;;;;5.85;2.00;;;;;;;23.60;38.78;94186.41;5098097;28;20177;-67
2023/10/28 11:28:57;;;;;;;3.38;1.58;;;;;;;23.58;38.67;94191.72;5096319;28;20542;-67
2023/10/28 11:31:29;;;;;;;2.63;1.65;;;;;;;23.64;38.25;94187.06;5097732;28;20195;-67
2023/10/28 11:33:57;;;;;;;3.10;1.88;;;;;;;23.69;38.68;94191.34;5097390;28;20585;-67
2023/10/28 11:36:24;;;;;;;2.05;1.48;;;;;;;23.67;34.44;94188.97;5097073;28;20207;-73
2023/10/28 11:38:50;;;;;;;2.05;1.23;;;;;;;23.65;34.14;94185.03;5096832;28;20189;-67